Mbour, Senegal
Current Conditions -  °F | °C
As of 1:30 AM on Thursday 23 Oct 2014 (Local Time) from GOOY Reporting Station
Scattered Clouds Scattered Clouds  
Wind Chill: 81°   Ceiling: Unl
Heat Index: 87°   Visibility: 6mi
Dew Point: 77°   Wind: 3mph
Humidity: 89%   Direction: NA
Pressure: 29.88"   Gusts: NA
Location:  14.43°N, 16.97°W
Report Text: GOOY 230130Z VRB03KT 9999 SCT008 27/25 Q1012 NOSIG
Loading
Personal Weather Stations






























Interactive Weather Map
Tropical Storm Tracking
New forecast layout! Learn more

10-Day Weather Forecast

Advertisements
Track Severe Weather on mobile